createdAt,value
2018-09-22T00:04:13.526Z,10.26
2018-09-22T00:10:04.400Z,10.1
2018-09-22T00:16:00.828Z,9.48
2018-09-22T00:21:54.453Z,11.9
2018-09-22T00:27:49.430Z,9.59
2018-09-22T00:33:44.550Z,10.02
2018-09-22T00:39:39.460Z,9.67
2018-09-22T00:45:34.433Z,12.82
2018-09-22T00:51:29.492Z,9.54
2018-09-22T00:57:24.460Z,9.26
2018-09-22T01:03:19.496Z,9.71
2018-09-22T01:09:14.469Z,14.74
2018-09-22T01:15:09.478Z,10.25
2018-09-22T01:21:04.499Z,11.77
2018-09-22T01:26:59.570Z,11.46
2018-09-22T01:32:58.560Z,9.8
2018-09-22T01:38:51.425Z,9.48
2018-09-22T01:44:44.533Z,12.83
2018-09-22T01:50:39.521Z,11.81
2018-09-22T01:56:34.493Z,11.84
2018-09-22T02:02:29.518Z,10.22
2018-09-22T02:08:24.522Z,11.14
2018-09-22T02:14:19.537Z,10.7
2018-09-22T02:20:18.627Z,14.56
2018-09-22T02:26:09.569Z,10.21
2018-09-22T02:32:04.564Z,11.72
2018-09-22T02:37:59.555Z,9.76
2018-09-22T02:43:54.552Z,10.44
2018-09-22T02:49:49.595Z,9.68
2018-09-22T02:55:44.578Z,11.56
2018-09-22T03:01:39.588Z,11.7
2018-09-22T03:07:34.590Z,11.62
2018-09-22T03:13:29.626Z,11.65
2018-09-22T03:19:24.578Z,11.55
2018-09-22T03:25:19.642Z,10.01
2018-09-22T03:31:18.727Z,10.72
2018-09-22T03:37:09.614Z,11.25
2018-09-22T03:43:04.619Z,11
2018-09-22T03:48:59.636Z,10.12
2018-09-22T03:54:54.707Z,10.52
2018-09-22T04:00:49.619Z,14.98
2018-09-22T04:06:44.683Z,11.92
2018-09-22T04:12:39.672Z,10.33
2018-09-22T04:18:34.709Z,11.6
2018-09-22T04:24:29.661Z,9.89
2018-09-22T04:30:24.700Z,11.53
2018-09-22T04:36:19.676Z,9.98
2018-09-22T04:42:14.702Z,10.16
2018-09-22T04:48:13.794Z,10.26
2018-09-22T04:54:06.734Z,9.82
2018-09-22T05:00:01.510Z,15.12
2018-09-22T05:05:54.767Z,11.5
2018-09-22T05:11:49.704Z,14.77
2018-09-22T05:17:46.137Z,11.65
2018-09-22T05:23:41.100Z,12.32
2018-09-22T05:29:34.733Z,11.64
2018-09-22T05:35:29.783Z,11.62
2018-09-22T05:41:24.746Z,11.49
2018-09-22T05:47:19.752Z,11.73
2018-09-22T05:53:14.740Z,9.75
2018-09-22T05:59:09.749Z,10.87
2018-09-22T06:05:04.759Z,11.77
2018-09-22T06:10:59.757Z,12.79
2018-09-22T06:16:54.824Z,11.94
2018-09-22T06:22:49.846Z,10.82
2018-09-22T06:28:44.781Z,12.18
2018-09-22T06:34:39.774Z,13.55
2018-09-22T06:40:34.862Z,15.55
2018-09-22T06:46:31.006Z,13.33
2018-09-22T06:52:24.810Z,15.07
2018-09-22T06:58:19.860Z,13.72
2018-09-22T07:04:15.833Z,14.52
2018-09-22T07:10:09.818Z,18.51
2018-09-22T07:16:04.891Z,15.05
2018-09-22T07:22:01.469Z,17.04
2018-09-22T07:27:54.836Z,16.27
2018-09-22T07:33:49.844Z,16.64
2018-09-22T07:39:44.850Z,15.66
2018-09-22T07:45:39.899Z,15.02
2018-09-22T07:51:34.890Z,17.12
2018-09-22T07:57:29.914Z,16.64
2018-09-22T08:03:24.897Z,15.1
2018-09-22T08:09:19.909Z,17.33
2018-09-22T08:15:14.884Z,16.24
2018-09-22T08:21:09.901Z,19.35
2018-09-22T08:27:04.979Z,20.61
2018-09-22T08:32:59.922Z,17.79
2018-09-22T08:38:54.909Z,19.79
2018-09-22T08:44:49.936Z,21.79
2018-09-22T08:50:47.311Z,17.17
2018-09-22T08:56:39.932Z,18.26
2018-09-22T09:02:34.929Z,17.09
2018-09-22T09:08:29.936Z,19.6
2018-09-22T09:14:25.008Z,17.67
2018-09-22T09:20:19.992Z,20.06
2018-09-22T09:26:14.962Z,16.09
2018-09-22T09:32:09.953Z,17.75
2018-09-22T09:38:04.974Z,14.96
2018-09-22T09:43:59.999Z,13.13
2018-09-22T09:49:55.021Z,12.36
2018-09-22T09:55:50.042Z,15.03
2018-09-22T10:01:47.269Z,13.67
2018-09-22T10:07:39.991Z,10.82
2018-09-22T10:13:34.987Z,10.26
2018-09-22T10:19:29.994Z,14.12
2018-09-22T10:25:25.013Z,11.55
2018-09-22T10:31:20.068Z,9
2018-09-22T10:37:15.011Z,9.57
2018-09-22T10:43:10.007Z,11.12
2018-09-22T10:49:05.038Z,9.93
2018-09-22T10:55:00.074Z,8.44
2018-09-22T11:00:57.099Z,7.04
2018-09-22T11:06:50.060Z,9.55
2018-09-22T11:12:45.062Z,8.08
2018-09-22T11:18:40.049Z,8.1
2018-09-22T11:24:35.079Z,7.21
2018-09-22T11:30:31.691Z,7.63
2018-09-22T11:36:25.080Z,7.55
2018-09-22T11:42:20.095Z,7.35
2018-09-22T11:48:15.080Z,8.47
2018-09-22T11:54:10.098Z,6.82
2018-09-22T12:00:05.110Z,8.69
2018-09-22T12:06:00.139Z,6.98
2018-09-22T12:11:56.558Z,9.25
2018-09-22T12:17:50.161Z,7.17
2018-09-22T12:23:45.124Z,7.33
2018-09-22T12:29:40.133Z,6.13
2018-09-22T12:35:35.138Z,6.38
2018-09-22T12:41:30.179Z,6.37
2018-09-22T12:47:25.139Z,6.27
2018-09-22T12:53:20.199Z,6.45
2018-09-22T12:59:15.167Z,6.25
2018-09-22T13:05:10.193Z,5.72
2018-09-22T13:11:05.235Z,7.01
2018-09-22T13:17:00.179Z,11.67
2018-09-22T13:22:55.207Z,7.61
2018-09-22T13:28:50.180Z,8.63
2018-09-22T13:34:45.232Z,7.67
2018-09-22T13:40:40.200Z,8.4
2018-09-22T13:46:35.226Z,6.54
2018-09-22T13:52:30.218Z,9.88
2018-09-22T13:58:25.230Z,7.62
2018-09-22T14:04:21.445Z,5.84
2018-09-22T14:10:15.396Z,6.79
2018-09-22T14:16:10.303Z,7.65
2018-09-22T14:22:05.232Z,6.15
2018-09-22T14:28:00.276Z,5.97
2018-09-22T14:33:55.254Z,8.18
2018-09-22T14:39:50.269Z,7.15
2018-09-22T14:45:46.934Z,7.16
2018-09-22T14:51:40.283Z,6.23
2018-09-22T14:57:35.277Z,6.31
2018-09-22T15:03:30.281Z,6.25
2018-09-22T15:09:25.310Z,5.37
2018-09-22T15:15:20.303Z,6.32
2018-09-22T15:21:15.308Z,7.08
2018-09-22T15:27:10.306Z,7.4
2018-09-22T15:33:05.331Z,7.07
2018-09-22T15:39:00.446Z,6.43
2018-09-22T15:44:55.364Z,6.39
2018-09-22T15:50:53.225Z,6.25
2018-09-22T15:56:45.360Z,7.86
2018-09-22T16:02:40.332Z,7.26
2018-09-22T16:08:35.371Z,7.41
2018-09-22T16:14:30.381Z,6.95
2018-09-22T16:20:25.369Z,6.87
2018-09-22T16:26:20.436Z,7.97
2018-09-22T16:32:15.383Z,7.06
2018-09-22T16:38:10.393Z,8.26
2018-09-22T16:44:05.465Z,9.5
2018-09-22T16:50:00.387Z,7.7
2018-09-22T16:55:55.522Z,7.68
2018-09-22T17:01:50.415Z,7.52
2018-09-22T17:07:45.420Z,8.47
2018-09-22T17:13:40.447Z,8.8
2018-09-22T17:19:35.411Z,9.07
2018-09-22T17:25:30.423Z,9.63
2018-09-22T17:31:25.434Z,8.05
2018-09-22T17:37:20.440Z,7.26
2018-09-22T17:43:15.480Z,9.12
2018-09-22T17:49:10.492Z,8.55
2018-09-22T17:55:09.489Z,9.01
2018-09-22T18:01:00.502Z,10.46
2018-09-22T18:06:55.478Z,10.12
2018-09-22T18:12:55.168Z,11.25
2018-09-22T18:18:45.494Z,11.61
2018-09-22T18:24:40.475Z,10.7
2018-09-22T18:30:35.501Z,11.27
2018-09-22T18:36:30.621Z,9.51
2018-09-22T18:42:25.519Z,10.22
2018-09-22T18:48:20.529Z,11.62
2018-09-22T18:54:15.604Z,8.99
2018-09-22T19:00:11.976Z,13.37
2018-09-22T19:06:05.580Z,11.99
2018-09-22T19:12:00.543Z,10.29
2018-09-22T19:17:55.542Z,9.96
2018-09-22T19:23:50.587Z,11.06
2018-09-22T19:29:45.537Z,8.84
2018-09-22T19:35:40.634Z,13.11
2018-09-22T19:41:35.650Z,10.09
2018-09-22T19:47:30.568Z,11
2018-09-22T19:53:25.583Z,11.54
2018-09-22T19:59:20.588Z,9.12
2018-09-22T20:05:15.584Z,11.73
2018-09-22T20:11:10.634Z,9.02
2018-09-22T20:17:05.699Z,11.56
2018-09-22T20:23:00.599Z,10.29
2018-09-22T20:28:55.621Z,9.83
2018-09-22T20:34:54.732Z,9.84
2018-09-22T20:40:45.669Z,9.42
2018-09-22T20:46:40.637Z,9.73
2018-09-22T20:52:35.731Z,9.28
2018-09-22T20:58:30.636Z,12.67
2018-09-22T21:04:27.344Z,11.48
2018-09-22T21:10:20.648Z,10.4
2018-09-22T21:16:17.214Z,11.53
2018-09-22T21:22:10.726Z,9.84
2018-09-22T21:28:05.670Z,8.68
2018-09-22T21:34:00.669Z,13.04
2018-09-22T21:39:55.676Z,9.52
2018-09-22T21:45:50.719Z,9.09
2018-09-22T21:51:45.684Z,11.12
2018-09-22T21:57:40.695Z,10.94
2018-09-22T22:03:35.750Z,13.33
2018-09-22T22:09:30.734Z,8.76
2018-09-22T22:15:25.727Z,9.97
2018-09-22T22:21:20.757Z,9.89
2018-09-22T22:27:15.717Z,10.18
2018-09-22T22:33:10.762Z,11.02
2018-09-22T22:39:05.798Z,12.31
2018-09-22T22:45:00.759Z,10.62
2018-09-22T22:50:55.756Z,10.92
2018-09-22T22:56:50.787Z,8.7
2018-09-22T23:02:45.771Z,9.35
2018-09-22T23:08:40.792Z,10.65
2018-09-22T23:14:35.769Z,12.97
2018-09-22T23:20:30.774Z,10.11
2018-09-22T23:26:25.822Z,10.36
2018-09-22T23:32:20.826Z,8.61
2018-09-22T23:38:15.784Z,8.58
2018-09-22T23:44:10.809Z,8.13
2018-09-22T23:50:05.831Z,9.67
2018-09-22T23:56:00.842Z,9.55
